Time;durP1;ratioP1;P1;durP2;ratioP2;P2;SDS_P1;SDS_P2;PMS_P1;PMS_P2;Temp;Humidity;BMP_temperature;BMP_pressure;BME280_temperature;BME280_humidity;BME280_pressure;Samples;Min_cycle;Max_cycle;Signal;HPM_P1;HPM_P2
2022/10/18 00:01:35;;;;;;;22.93;12.30;;;;;;;-141.97;69.84;47546.00;4995288;28;20946;-82
2022/10/18 00:04:02;;;;;;;21.10;12.63;;;;;;;-141.97;69.55;47578.66;4994596;28;20500;-83
2022/10/18 00:06:32;;;;;;;26.20;13.03;;;;;;;-141.97;69.23;47599.81;4995286;28;20534;-82
2022/10/18 00:09:03;;;;;;;23.80;12.70;;;;;;;-141.97;68.76;47584.44;4995099;28;20454;-82
2022/10/18 00:11:32;;;;;;;25.57;13.60;;;;;;;-141.97;68.83;47684.38;4974590;28;21010;-82
2022/10/18 00:14:02;;;;;;;24.40;13.57;;;;;;;-141.97;69.05;47669.00;4995084;28;20415;-83
2022/10/18 00:16:32;;;;;;;26.43;13.87;;;;;;;-141.97;69.36;47611.34;4994882;28;20411;-82
2022/10/18 00:18:58;;;;;;;29.17;14.33;;;;;;;-141.97;69.95;47686.31;4994919;28;20430;-82
2022/10/18 00:21:24;;;;;;;24.47;14.50;;;;;;;-141.97;70.30;47630.56;4994064;28;20441;-82
2022/10/18 00:23:51;;;;;;;24.20;14.37;;;;;;;-141.97;70.48;47676.69;4994441;28;20617;-82
2022/10/18 00:26:22;;;;;;;27.80;14.47;;;;;;;-141.97;69.78;47507.53;4993038;28;20421;-82
2022/10/18 00:28:53;;;;;;;24.00;14.23;;;;;;;-141.97;69.71;47595.97;4994000;28;20933;-82
2022/10/18 00:31:27;;;;;;;23.90;13.73;;;;;;;-141.97;70.31;47544.06;4994318;28;20473;-82
2022/10/18 00:33:56;;;;;;;24.47;14.27;;;;;;;-141.97;70.53;47565.22;4993322;28;20931;-83
2022/10/18 00:36:22;;;;;;;23.43;14.00;;;;;;;-141.97;70.26;47595.97;4993941;28;20406;-82
2022/10/18 00:38:48;;;;;;;27.03;13.57;;;;;;;-141.97;71.32;47607.50;4993926;28;20398;-82
2022/10/18 00:41:17;;;;;;;26.33;14.60;;;;;;;-141.97;71.86;47626.72;4993768;28;20438;-83
2022/10/18 00:43:59;;;;;;;28.67;14.67;;;;;;;-141.97;72.15;47586.34;4993571;28;20255;-82
2022/10/18 00:46:28;;;;;;;26.43;14.00;;;;;;;-141.97;71.92;47555.59;4976338;28;20422;-82
2022/10/18 00:48:55;;;;;;;22.77;13.77;;;;;;;-141.97;71.97;47572.91;4993742;28;20458;-82
2022/10/18 00:51:24;;;;;;;27.43;13.20;;;;;;;-141.97;71.64;47615.19;4993795;28;20398;-82
2022/10/18 00:53:49;;;;;;;28.53;14.67;;;;;;;-141.97;72.03;47549.84;4993984;28;20417;-82
2022/10/18 00:56:16;;;;;;;26.80;14.53;;;;;;;-141.97;73.12;47595.97;4993838;28;20406;-82
2022/10/18 00:58:42;;;;;;;28.17;14.40;;;;;;;-141.97;72.92;47499.84;4993725;28;20628;-82
2022/10/18 01:01:08;;;;;;;27.93;14.50;;;;;;;-141.97;73.01;47565.22;4993595;28;20415;-82
2022/10/18 01:03:39;;;;;;;28.10;14.77;;;;;;;-141.97;73.02;47582.50;4994462;28;20406;-82
2022/10/18 01:06:10;;;;;;;28.67;14.77;;;;;;;-141.97;73.11;47557.53;4994211;28;20169;-82
2022/10/18 01:08:50;;;;;;;27.60;14.73;;;;;;;-141.97;73.63;47582.50;4993935;28;20868;-83
2022/10/18 01:11:32;;;;;;;24.00;13.57;;;;;;;-141.97;73.49;47576.75;4993281;28;21011;-82
2022/10/18 01:14:22;;;;;;;27.23;14.27;;;;;;;-141.97;73.62;47580.59;4993476;28;20476;-81
2022/10/18 01:16:59;;;;;;;25.57;13.30;;;;;;;-141.97;73.44;47570.97;4993326;28;20410;-82
2022/10/18 01:19:43;;;;;;;26.40;13.93;;;;;;;-141.97;73.26;47576.75;4993229;28;20398;-82
2022/10/18 01:22:47;;;;;;;26.37;14.73;;;;;;;-141.97;72.37;47603.66;4993165;28;20414;-82
2022/10/18 01:25:27;;;;;;;24.60;13.50;;;;;;;-141.97;71.67;47592.13;4899004;29;21086;-82
2022/10/18 01:28:11;;;;;;;24.43;12.47;;;;;;;-141.97;71.25;47580.59;4915234;29;20413;-82
2022/10/18 01:30:52;;;;;;;22.00;12.73;;;;;;;-141.97;70.66;47592.13;4920563;29;20533;-82
2022/10/18 01:33:27;;;;;;;21.10;12.27;;;;;;;-141.97;71.11;47565.22;4920102;29;20426;-82
2022/10/18 01:36:04;;;;;;;24.13;12.60;;;;;;;-141.97;71.37;47530.59;4919928;29;20425;-82
2022/10/18 01:38:32;;;;;;;19.90;11.70;;;;;;;-141.97;71.31;47569.06;4913861;29;21040;-82
2022/10/18 01:40:59;;;;;;;22.23;11.53;;;;;;;-141.97;71.48;47584.44;4913520;29;20551;-82
2022/10/18 01:43:27;;;;;;;22.80;11.60;;;;;;;-141.97;71.20;47672.84;4914180;29;20429;-82
2022/10/18 01:45:54;;;;;;;26.00;13.33;;;;;;;-141.97;71.43;47567.13;4897449;29;20844;-82
2022/10/18 01:48:20;;;;;;;25.37;13.57;;;;;;;-141.97;71.45;47611.34;4913928;29;20426;-82
2022/10/18 01:50:45;;;;;;;26.77;13.50;;;;;;;-141.97;71.13;47603.66;4913523;29;20573;-82
2022/10/18 01:53:26;;;;;;;23.10;11.77;;;;;;;-141.97;70.41;47565.22;4914156;29;20205;-83
2022/10/18 01:56:04;;;;;;;21.17;10.60;;;;;;;-141.97;70.82;47559.44;4897722;29;20193;-82
2022/10/18 01:58:51;;;;;;;22.17;12.10;;;;;;;-141.97;71.44;47599.81;4913663;29;20820;-81
2022/10/18 02:01:23;;;;;;;27.30;14.63;;;;;;;-141.97;71.31;47557.53;4936019;28;20426;-82
2022/10/18 02:03:55;;;;;;;26.53;14.10;;;;;;;-141.97;71.74;47607.50;4992393;28;20414;-82
2022/10/18 02:06:26;;;;;;;25.63;13.20;;;;;;;-141.97;71.02;47553.69;4992396;28;20409;-82
2022/10/18 02:08:56;;;;;;;28.23;15.10;;;;;;;-141.97;70.38;47572.91;4993180;28;20581;-82
2022/10/18 02:11:22;;;;;;;21.20;11.10;;;;;;;-141.97;70.77;47592.13;4991213;28;20478;-82
2022/10/18 02:13:52;;;;;;;21.37;11.57;;;;;;;-141.97;70.54;47619.03;4992689;28;20413;-83
2022/10/18 02:16:22;;;;;;;18.63;10.50;;;;;;;-141.97;69.87;47684.38;4992403;28;20533;-83
2022/10/18 02:19:00;;;;;;;21.10;11.77;;;;;;;-141.97;69.55;47622.88;4992679;28;20410;-83
2022/10/18 02:21:27;;;;;;;20.07;11.40;;;;;;;-141.97;69.39;47594.03;4992492;28;20407;-82
2022/10/18 02:23:54;;;;;;;21.10;11.10;;;;;;;-141.97;69.17;47505.63;4992477;28;20399;-82
2022/10/18 02:26:20;;;;;;;21.90;11.70;;;;;;;-141.97;69.12;47592.13;4992422;28;20467;-83
2022/10/18 02:28:48;;;;;;;22.80;12.90;;;;;;;-141.97;69.13;47522.91;4992625;28;20809;-83
2022/10/18 02:31:29;;;;;;;23.53;12.60;;;;;;;-141.97;69.06;47569.06;4994007;28;20164;-83
2022/10/18 02:34:06;;;;;;;26.63;13.57;;;;;;;-141.97;69.25;47588.28;4994465;28;20933;-81
2022/10/18 02:36:51;;;;;;;26.20;14.10;;;;;;;-141.97;69.30;47522.91;5001175;28;20497;-81
2022/10/18 02:39:24;;;;;;;24.43;12.23;;;;;;;-141.97;69.46;47576.75;4999284;28;20402;-83
2022/10/18 02:41:49;;;;;;;21.90;11.67;;;;;;;-141.97;70.38;47584.44;5011254;28;20402;-83
2022/10/18 02:44:21;;;;;;;19.47;10.93;;;;;;;-141.97;71.01;47669.00;5012068;28;20408;-82
2022/10/18 02:46:50;;;;;;;22.57;12.00;;;;;;;-141.97;71.05;47611.34;5012459;28;20234;-82
2022/10/18 02:49:20;;;;;;;19.93;11.40;;;;;;;-141.97;71.29;47599.81;5012624;28;20427;-81
2022/10/18 02:51:52;;;;;;;21.33;11.93;;;;;;;-141.97;70.95;47605.56;5012007;28;20453;-82
2022/10/18 02:54:21;;;;;;;25.63;13.60;;;;;;;-141.97;70.65;47605.56;5011962;28;20417;-82
2022/10/18 02:56:51;;;;;;;25.43;13.30;;;;;;;-141.97;70.09;47638.25;5012515;28;20398;-82
2022/10/18 02:59:21;;;;;;;27.53;13.03;;;;;;;-141.97;69.84;47586.34;5007092;28;20409;-81
2022/10/18 03:01:51;;;;;;;24.50;12.03;;;;;;;-141.97;69.58;47611.34;4997188;28;20413;-82
2022/10/18 03:04:21;;;;;;;20.57;10.90;;;;;;;-141.97;70.03;47607.50;4996820;28;20510;-82
2022/10/18 03:06:52;;;;;;;20.00;11.33;;;;;;;-141.97;70.16;47526.75;4996780;28;20415;-82
2022/10/18 03:09:22;;;;;;;27.10;11.67;;;;;;;-141.97;70.35;47551.75;4996417;28;20447;-83
2022/10/18 03:11:52;;;;;;;22.50;11.27;;;;;;;-141.97;70.56;47603.66;4979176;28;20922;-82
2022/10/18 03:14:23;;;;;;;22.77;11.80;;;;;;;-141.97;70.81;47595.97;4996584;28;20902;-82
2022/10/18 03:16:54;;;;;;;19.63;11.20;;;;;;;-141.97;71.19;47542.16;4996606;28;20990;-85
2022/10/18 03:19:23;;;;;;;20.73;11.20;;;;;;;-141.97;71.04;47582.50;4996785;28;20411;-84
2022/10/18 03:21:53;;;;;;;21.57;12.00;;;;;;;-141.97;70.93;47590.19;4996427;28;20395;-85
2022/10/18 03:24:23;;;;;;;22.20;12.40;;;;;;;-141.97;70.47;47597.88;4996707;28;20843;-83
2022/10/18 03:26:49;;;;;;;23.53;12.20;;;;;;;-141.97;70.90;47544.06;4996192;28;20410;-81
2022/10/18 03:29:17;;;;;;;23.30;11.80;;;;;;;-141.97;70.80;47619.03;4996095;28;20899;-82
2022/10/18 03:31:42;;;;;;;26.07;12.40;;;;;;;-141.97;70.76;47570.97;4996312;28;20853;-82
2022/10/18 03:34:07;;;;;;;22.50;12.13;;;;;;;-141.97;71.17;47605.56;4995963;28;20214;-83
2022/10/18 03:36:33;;;;;;;23.37;11.43;;;;;;;-141.97;71.03;47592.13;4996108;28;20172;-82
2022/10/18 03:38:58;;;;;;;20.57;11.60;;;;;;;-141.97;71.63;47572.91;4995876;28;20168;-83
2022/10/18 03:41:27;;;;;;;21.83;11.93;;;;;;;-141.97;72.48;47584.44;4995959;28;20175;-85
2022/10/18 03:43:56;;;;;;;18.87;10.83;;;;;;;-141.97;72.99;47728.59;4995850;28;20652;-83
2022/10/18 03:46:26;;;;;;;22.90;11.67;;;;;;;-141.97;73.47;47569.06;4995903;28;20406;-83
2022/10/18 03:48:57;;;;;;;20.90;11.30;;;;;;;-141.97;73.91;47540.22;4995597;28;20979;-83
2022/10/18 03:51:27;;;;;;;22.70;11.43;;;;;;;-141.97;74.32;47584.44;4995627;28;20409;-82
2022/10/18 03:53:58;;;;;;;23.00;11.47;;;;;;;-141.97;73.48;47572.91;4995514;28;20417;-81
2022/10/18 03:56:28;;;;;;;21.73;11.13;;;;;;;-141.97;73.23;47599.81;4995297;28;20417;-83
2022/10/18 03:58:58;;;;;;;20.77;11.67;;;;;;;-141.97;73.37;47619.03;4995382;28;20813;-83
2022/10/18 04:01:28;;;;;;;25.50;11.40;;;;;;;-141.97;72.95;47611.34;4995190;28;20811;-83
2022/10/18 04:03:58;;;;;;;19.43;11.27;;;;;;;-141.97;72.91;47672.84;4995599;28;20934;-81
2022/10/18 04:06:29;;;;;;;20.67;11.10;;;;;;;-141.97;73.30;47628.63;4995792;28;20414;-84
2022/10/18 04:08:59;;;;;;;19.63;10.87;;;;;;;-141.97;73.43;47584.44;4994500;28;21431;-86
2022/10/18 04:11:29;;;;;;;20.50;11.23;;;;;;;-141.97;73.10;47609.41;4994987;28;20489;-83
2022/10/18 04:13:54;;;;;;;23.40;11.10;;;;;;;-141.97;73.49;47667.06;4963318;28;20557;-84
2022/10/18 04:16:22;;;;;;;20.33;11.20;;;;;;;-141.97;73.62;47588.28;4945091;28;20487;-82
2022/10/18 04:18:48;;;;;;;19.87;11.00;;;;;;;-141.97;73.56;47586.34;4945700;29;21035;-82
2022/10/18 04:21:13;;;;;;;19.30;10.90;;;;;;;-141.97;72.93;47595.97;4951043;29;20411;-83
2022/10/18 04:23:38;;;;;;;19.57;11.37;;;;;;;-141.97;73.59;47559.44;4950357;29;20195;-83
2022/10/18 04:26:04;;;;;;;19.60;11.07;;;;;;;-141.97;74.02;47599.81;4950110;29;20700;-83
2022/10/18 04:28:32;;;;;;;24.53;11.70;;;;;;;-141.97;74.92;47578.66;4949959;29;20192;-83
2022/10/18 04:31:01;;;;;;;22.17;11.30;;;;;;;-141.97;75.55;47582.50;4934134;29;20199;-82
2022/10/18 04:33:32;;;;;;;24.93;11.80;;;;;;;-141.97;74.61;47595.97;4934303;29;20448;-83
2022/10/18 04:36:03;;;;;;;23.90;12.33;;;;;;;-141.97;74.81;47570.97;4932663;29;20450;-85
2022/10/18 04:38:33;;;;;;;20.77;10.97;;;;;;;-141.97;75.30;47559.44;4933260;29;20442;-83
2022/10/18 04:41:03;;;;;;;22.03;10.87;;;;;;;-141.97;75.55;47572.91;4959116;29;20447;-83
2022/10/18 04:43:40;;;;;;;23.07;11.93;;;;;;;-141.97;75.28;47572.91;4957914;29;20523;-82
2022/10/18 04:46:05;;;;;;;19.97;11.20;;;;;;;-141.97;75.04;47584.44;4951372;29;20471;-84
2022/10/18 04:48:33;;;;;;;24.50;12.53;;;;;;;-141.97;75.27;47553.69;4990181;28;20510;-82
2022/10/18 04:51:05;;;;;;;28.23;13.80;;;;;;;-141.97;75.85;47659.38;4992323;28;20645;-83
2022/10/18 04:53:34;;;;;;;41.47;18.70;;;;;;;-141.97;75.50;47595.97;4992180;28;20523;-82
2022/10/18 04:56:06;;;;;;;48.63;24.27;;;;;;;-141.97;75.88;47563.28;4991537;28;20446;-86
2022/10/18 04:58:34;;;;;;;39.83;20.20;;;;;;;-141.97;75.53;47597.88;4954641;28;20679;-83
2022/10/18 05:01:05;;;;;;;35.47;17.67;;;;;;;-141.97;75.42;47609.41;4995204;28;20453;-84
2022/10/18 05:03:37;;;;;;;44.00;20.20;;;;;;;-141.97;75.50;47584.44;4992148;28;20441;-82
2022/10/18 05:06:06;;;;;;;40.97;18.03;;;;;;;-141.97;75.30;47699.75;4970856;28;20469;-83
2022/10/18 05:08:36;;;;;;;36.00;17.03;;;;;;;-141.97;74.83;47588.28;4975301;28;20450;-83
2022/10/18 05:11:05;;;;;;;32.27;16.83;;;;;;;-141.97;74.16;47578.66;4971568;28;20463;-84
2022/10/18 05:13:37;;;;;;;25.50;13.43;;;;;;;-141.97;74.62;47605.56;4972483;28;20485;-84
2022/10/18 05:16:06;;;;;;;24.63;12.93;;;;;;;-141.97;74.58;47595.97;4971605;28;20446;-85
2022/10/18 05:18:36;;;;;;;37.43;18.87;;;;;;;-141.97;73.77;47615.19;4971202;28;20770;-84
2022/10/18 05:21:06;;;;;;;28.67;12.87;;;;;;;-141.97;73.31;47597.88;4956142;28;20931;-85
2022/10/18 05:23:37;;;;;;;25.97;13.07;;;;;;;-141.97;73.54;47603.66;4953484;28;20820;-83
2022/10/18 05:26:10;;;;;;;24.70;12.67;;;;;;;-141.97;74.33;47626.72;4971525;28;20474;-83
2022/10/18 05:28:37;;;;;;;28.97;13.50;;;;;;;-141.97;74.04;47546.00;4955331;28;20527;-85
2022/10/18 05:31:09;;;;;;;27.23;13.23;;;;;;;-141.97;73.94;47603.66;4973883;28;20427;-85
2022/10/18 05:33:46;;;;;;;25.47;11.93;;;;;;;-141.97;73.50;47595.97;4974154;28;20447;-84
2022/10/18 05:36:12;;;;;;;23.33;10.73;;;;;;;-141.97;73.22;47570.97;4972757;28;20952;-85
2022/10/18 05:38:41;;;;;;;40.63;20.23;;;;;;;-141.97;73.79;47624.78;4989945;28;20434;-84
2022/10/18 05:41:11;;;;;;;50.70;24.43;;;;;;;-141.97;73.88;47622.88;4991012;28;20206;-83
2022/10/18 05:43:39;;;;;;;55.37;27.53;;;;;;;-141.97;73.86;47588.28;4990982;28;20426;-84
2022/10/18 05:46:09;;;;;;;71.57;37.83;;;;;;;-141.97;73.62;47567.13;4991528;28;20440;-85
2022/10/18 05:48:38;;;;;;;69.73;38.17;;;;;;;-141.97;73.24;47609.41;4990724;28;20570;-84
2022/10/18 05:51:09;;;;;;;30.80;15.97;;;;;;;-141.97;72.52;47582.50;4989737;28;20453;-85
2022/10/18 05:53:39;;;;;;;27.03;12.47;;;;;;;-141.97;72.18;47590.19;4984418;28;20428;-85
2022/10/18 05:56:10;;;;;;;22.67;12.23;;;;;;;-141.97;71.60;47499.84;4971230;28;21067;-84
2022/10/18 05:58:40;;;;;;;20.67;10.97;;;;;;;-141.97;72.00;47740.13;4980175;28;20455;-85
2022/10/18 06:01:09;;;;;;;22.60;11.73;;;;;;;-141.97;73.41;47594.03;4971525;28;20474;-85
2022/10/18 06:03:38;;;;;;;21.83;12.13;;;;;;;-141.97;72.50;47592.13;4992081;28;20441;-84
2022/10/18 06:06:11;;;;;;;28.60;13.70;;;;;;;-141.97;71.83;47624.78;4991111;28;20442;-83
2022/10/18 06:08:41;;;;;;;38.67;19.10;;;;;;;-141.97;71.56;47607.50;4991119;28;20469;-84
2022/10/18 06:11:11;;;;;;;59.63;35.03;;;;;;;-141.97;71.56;47572.91;4977757;28;20502;-85
2022/10/18 06:13:45;;;;;;;51.10;28.97;;;;;;;-141.97;71.11;47599.81;4972665;28;20443;-83
2022/10/18 06:16:11;;;;;;;45.00;23.03;;;;;;;-141.97;70.71;47607.50;4972293;28;20773;-84
2022/10/18 06:18:39;;;;;;;38.63;21.27;;;;;;;-141.97;70.12;47592.13;4971622;28;20431;-86
2022/10/18 06:21:08;;;;;;;49.93;23.57;;;;;;;-141.97;69.32;47620.94;4971561;28;20838;-85
2022/10/18 06:23:39;;;;;;;36.33;20.13;;;;;;;-141.97;68.62;47603.66;4972202;28;20431;-84
2022/10/18 06:26:11;;;;;;;31.53;16.97;;;;;;;-141.97;69.00;47707.44;4972610;28;21045;-83
2022/10/18 06:28:38;;;;;;;26.40;14.13;;;;;;;-141.97;67.67;47601.72;4972088;28;20475;-83
2022/10/18 06:31:10;;;;;;;25.60;14.47;;;;;;;-141.97;67.03;47586.34;4971342;28;20454;-84
2022/10/18 06:33:39;;;;;;;26.20;13.43;;;;;;;-141.97;66.83;47611.34;4975513;28;20213;-84
2022/10/18 06:36:08;;;;;;;21.90;11.80;;;;;;;-141.97;65.99;47601.72;4976089;28;20427;-82
2022/10/18 06:38:40;;;;;;;19.83;11.47;;;;;;;-141.97;67.24;47620.94;4977764;28;20212;-84
2022/10/18 06:41:10;;;;;;;21.83;10.93;;;;;;;-141.97;67.78;47576.75;4975965;28;20443;-83
2022/10/18 06:43:42;;;;;;;25.43;10.73;;;;;;;-141.97;66.77;47684.38;4976604;28;20919;-84
2022/10/18 06:46:10;;;;;;;25.13;12.77;;;;;;;-141.97;65.87;47586.34;4975969;28;20282;-84
2022/10/18 06:48:40;;;;;;;24.53;11.67;;;;;;;-141.97;65.32;47630.56;4974614;28;20614;-84
2022/10/18 06:51:10;;;;;;;18.03;10.20;;;;;;;-141.97;65.02;47624.78;4974948;28;20180;-83
2022/10/18 06:53:40;;;;;;;19.57;10.80;;;;;;;-141.97;65.10;47599.81;4983807;28;20270;-84
2022/10/18 06:56:12;;;;;;;18.90;10.57;;;;;;;-141.97;64.45;47588.28;4994960;28;20190;-83
2022/10/18 06:58:40;;;;;;;15.20;9.53;;;;;;;-141.97;61.49;47569.06;4986609;28;20288;-83
2022/10/18 07:01:14;;;;;;;17.37;9.50;;;;;;;-141.97;61.36;47567.13;4982914;28;20187;-84
2022/10/18 07:03:41;;;;;;;20.50;11.57;;;;;;;-141.97;60.71;47607.50;4975127;28;20187;-85
2022/10/18 07:06:13;;;;;;;22.73;11.53;;;;;;;-141.97;59.32;47597.88;4975150;28;20184;-85
2022/10/18 07:08:41;;;;;;;21.73;11.23;;;;;;;-141.97;59.46;47592.13;4976095;28;20203;-85
2022/10/18 07:11:25;;;;;;;18.83;10.90;;;;;;;-141.97;58.43;47711.28;4974969;28;20230;-88
2022/10/18 07:13:53;;;;;;;20.93;11.17;;;;;;;-141.97;56.63;47576.75;4974907;28;20219;-83
2022/10/18 07:16:18;;;;;;;18.63;11.80;;;;;;;-141.97;56.17;47557.53;4974930;28;20270;-85
2022/10/18 07:18:49;;;;;;;30.13;13.17;;;;;;;-141.97;56.30;47588.28;4973228;28;20196;-84
2022/10/18 07:21:20;;;;;;;22.50;12.00;;;;;;;-141.97;57.86;47582.50;4974638;28;20192;-84
2022/10/18 07:23:47;;;;;;;21.53;12.20;;;;;;;-141.97;56.55;47599.81;4975041;28;20183;-86
2022/10/18 07:26:14;;;;;;;19.73;12.47;;;;;;;-141.97;54.65;47565.22;4974890;28;20652;-85
2022/10/18 07:28:44;;;;;;;24.80;13.80;;;;;;;-141.97;54.16;47597.88;4975690;28;20188;-85
2022/10/18 07:31:12;;;;;;;21.47;12.50;;;;;;;-141.97;53.60;47551.75;4974297;28;20570;-85
2022/10/18 07:33:42;;;;;;;28.33;12.07;;;;;;;-141.97;54.28;47546.00;4958291;28;20204;-85
2022/10/18 07:36:13;;;;;;;22.43;11.63;;;;;;;-141.97;52.58;47603.66;4976052;28;20184;-85
2022/10/18 07:38:43;;;;;;;20.97;12.70;;;;;;;-141.97;51.40;47584.44;4974781;28;20501;-85
2022/10/18 07:41:13;;;;;;;22.20;12.67;;;;;;;-141.97;51.42;47584.44;4974615;28;20180;-84
2022/10/18 07:43:44;;;;;;;22.20;13.53;;;;;;;-141.97;50.09;47607.50;4973253;28;20209;-86
2022/10/18 07:46:13;;;;;;;25.50;14.37;;;;;;;-141.97;52.03;47559.44;4973356;28;20179;-85
2022/10/18 07:48:42;;;;;;;19.33;12.47;;;;;;;-141.97;50.35;47584.44;4975678;28;20649;-85
2022/10/18 07:51:13;;;;;;;17.50;11.27;;;;;;;-141.97;49.40;47595.97;4974738;28;20271;-86
2022/10/18 07:53:42;;;;;;;19.57;10.53;;;;;;;-141.97;49.65;47599.81;4983626;28;20183;-84
2022/10/18 07:56:16;;;;;;;14.53;9.30;;;;;;;-141.97;48.05;47569.06;4998543;28;20243;-86
2022/10/18 07:58:44;;;;;;;16.60;10.47;;;;;;;-141.97;48.97;47703.59;4989733;28;20227;-85
2022/10/18 08:01:14;;;;;;;19.90;11.30;;;;;;;-141.97;49.88;47657.47;4984080;28;20191;-85
2022/10/18 08:03:43;;;;;;;18.97;10.77;;;;;;;-141.97;48.64;47555.59;4974986;28;20184;-84
2022/10/18 08:06:17;;;;;;;14.00;9.70;;;;;;;-141.97;50.61;47553.69;4974213;28;20316;-83
2022/10/18 08:08:43;;;;;;;17.33;10.87;;;;;;;-141.97;49.88;47584.44;4973460;28;20180;-86
2022/10/18 08:11:18;;;;;;;20.17;11.63;;;;;;;-141.97;49.89;47578.66;4973009;28;20307;-83
2022/10/18 08:13:43;;;;;;;18.87;11.00;;;;;;;-141.97;48.61;47665.16;4973464;28;20190;-83
2022/10/18 08:16:15;;;;;;;17.73;11.60;;;;;;;-141.97;47.00;47572.91;4973235;28;20567;-85
2022/10/18 08:18:42;;;;;;;17.40;9.73;;;;;;;-141.97;45.63;47551.75;4973790;28;20234;-84
2022/10/18 08:21:14;;;;;;;15.63;9.30;;;;;;;-141.97;45.42;47586.34;4973646;28;20183;-85
2022/10/18 08:23:43;;;;;;;17.83;10.10;;;;;;;-141.97;44.44;47542.16;4987479;28;20182;-84
2022/10/18 08:26:18;;;;;;;14.60;9.73;;;;;;;-141.97;43.46;47590.19;4992973;28;20190;-84
2022/10/18 08:28:43;;;;;;;14.93;9.40;;;;;;;-141.97;43.49;47538.28;4992582;28;20183;-85
2022/10/18 08:31:19;;;;;;;17.53;9.90;;;;;;;-141.97;44.36;47538.28;4975535;28;20194;-85
2022/10/18 08:33:44;;;;;;;15.67;9.70;;;;;;;-141.97;43.35;47590.19;4992430;28;20277;-84
2022/10/18 08:36:16;;;;;;;15.10;9.60;;;;;;;-141.97;42.17;47557.53;4992714;28;20229;-83
2022/10/18 08:38:44;;;;;;;12.40;8.73;;;;;;;-141.97;42.43;47584.44;4992343;28;20687;-87
2022/10/18 08:41:36;;;;;;;17.47;8.57;;;;;;;-141.97;43.35;47542.16;4992912;28;20274;-84
2022/10/18 08:44:19;;;;;;;13.17;8.57;;;;;;;-141.97;43.04;47576.75;4992786;28;21019;-85
2022/10/18 08:46:48;;;;;;;14.33;8.90;;;;;;;-141.97;43.25;47582.50;4993329;28;20234;-89
2022/10/18 08:49:47;;;;;;;14.70;9.10;;;;;;;-141.97;42.40;47569.06;4975252;28;20211;-88
2022/10/18 08:52:32;;;;;;;15.50;8.73;;;;;;;-141.97;41.32;47538.28;4992316;28;20195;-80
2022/10/18 08:55:15;;;;;;;14.27;9.30;;;;;;;-141.97;40.64;47542.16;4970169;28;20220;-78
2022/10/18 08:57:46;;;;;;;15.40;10.40;;;;;;;-141.97;39.73;47488.31;4971893;28;20223;-78
2022/10/18 09:00:24;;;;;;;16.47;9.57;;;;;;;-141.97;39.48;47526.75;4954626;28;20191;-78
2022/10/18 09:03:01;;;;;;;14.33;9.20;;;;;;;-141.97;39.96;47553.69;4990307;28;20237;-78
2022/10/18 09:05:52;;;;;;;13.13;8.60;;;;;;;-141.97;39.48;47519.06;4972414;28;20282;-79
2022/10/18 09:08:38;;;;;;;17.70;9.77;;;;;;;-141.97;38.89;47532.53;4970456;28;20216;-79
2022/10/18 09:11:22;;;;;;;14.50;9.70;;;;;;;-141.97;38.84;47522.91;4970750;28;20234;-78
2022/10/18 09:14:20;;;;;;;13.03;8.40;;;;;;;-141.97;38.61;47530.59;4971505;28;20183;-79
2022/10/18 09:17:01;;;;;;;12.93;8.67;;;;;;;-141.97;38.06;47511.38;4970277;28;20210;-81
2022/10/18 09:19:53;;;;;;;12.30;8.73;;;;;;;-141.97;37.18;47526.75;4970736;28;20199;-80
2022/10/18 09:22:24;;;;;;;15.20;8.63;;;;;;;-141.97;37.40;47519.06;4923412;28;20200;-79
2022/10/18 09:25:04;;;;;;;13.57;8.70;;;;;;;-141.97;37.50;47492.16;4970336;28;20222;-79
2022/10/18 09:27:41;;;;;;;13.73;9.17;;;;;;;-141.97;37.54;47521.00;4970622;28;20184;-80
2022/10/18 09:30:18;;;;;;;17.60;12.00;;;;;;;-141.97;38.55;47563.28;4970445;28;20669;-79
2022/10/18 09:32:53;;;;;;;13.37;8.83;;;;;;;-141.97;38.37;47549.84;4970880;28;20812;-80
2022/10/18 09:35:27;;;;;;;15.00;11.67;;;;;;;-141.97;38.40;47530.59;4970128;28;20234;-78
2022/10/18 09:38:01;;;;;;;15.37;9.20;;;;;;;-141.97;38.32;47561.38;4970598;28;20613;-76
2022/10/18 09:40:31;;;;;;;16.73;11.30;;;;;;;-141.97;38.78;47551.75;4970539;28;20183;-77
2022/10/18 09:43:14;;;;;;;18.60;13.20;;;;;;;-141.97;38.38;47572.91;4970476;28;20664;-76
2022/10/18 09:45:43;;;;;;;16.17;9.20;;;;;;;-141.97;38.35;47526.75;4969792;28;20247;-77
2022/10/18 09:48:20;;;;;;;15.57;8.53;;;;;;;-141.97;38.12;47565.22;4970758;28;20188;-77
2022/10/18 09:50:53;;;;;;;19.33;13.43;;;;;;;-141.97;37.90;47549.84;4970786;28;20222;-76
2022/10/18 09:53:59;;;;;;;14.40;9.07;;;;;;;-141.97;37.44;47530.59;4976871;28;20187;-78
2022/10/18 09:57:12;;;;;;;11.23;7.90;;;;;;;-141.97;36.60;47499.84;4975837;28;20278;-77
2022/10/18 09:59:45;;;;;;;12.03;8.13;;;;;;;-141.97;36.28;47538.28;4884349;29;20277;-77
2022/10/18 10:02:13;;;;;;;11.13;7.90;;;;;;;-141.97;36.02;47501.78;4891945;29;20199;-77
2022/10/18 10:04:39;;;;;;;13.30;8.67;;;;;;;-141.97;36.01;47517.16;4891751;29;20258;-76
2022/10/18 10:07:11;;;;;;;12.57;9.33;;;;;;;-141.97;36.59;47499.84;4908365;29;20392;-76
2022/10/18 10:10:00;;;;;;;16.37;10.60;;;;;;;-141.97;36.66;47530.59;4909491;29;20217;-77
2022/10/18 10:12:32;;;;;;;13.03;8.70;;;;;;;-141.97;36.45;47513.31;4871964;29;20226;-77
2022/10/18 10:15:16;;;;;;;15.73;8.90;;;;;;;-141.97;36.05;47542.16;4873806;29;20243;-77
2022/10/18 10:17:42;;;;;;;14.73;9.17;;;;;;;-141.97;36.01;47515.22;4875819;29;20195;-76
2022/10/18 10:20:23;;;;;;;13.67;8.80;;;;;;;-141.97;36.98;47503.69;4875718;29;20671;-77
2022/10/18 10:23:03;;;;;;;11.70;8.50;;;;;;;-141.97;36.93;47524.84;4876043;29;20226;-77
2022/10/18 10:25:33;;;;;;;13.97;8.90;;;;;;;-141.97;37.50;47515.22;4876029;29;20163;-77
2022/10/18 10:28:12;;;;;;;12.00;8.63;;;;;;;-141.97;37.31;47530.59;4875933;29;20191;-78
2022/10/18 10:30:38;;;;;;;17.00;9.73;;;;;;;-141.97;36.99;47534.44;4875586;29;20625;-77
2022/10/18 10:33:04;;;;;;;14.17;8.80;;;;;;;-141.97;37.02;47542.16;4875557;29;20180;-77
2022/10/18 10:35:31;;;;;;;17.00;9.80;;;;;;;-141.97;36.62;47538.28;4898225;29;20229;-77
2022/10/18 10:37:57;;;;;;;22.00;17.87;;;;;;;-141.97;36.95;47488.31;4946387;29;20192;-78
2022/10/18 10:40:30;;;;;;;12.50;9.03;;;;;;;-141.97;36.61;47484.47;4942134;29;20204;-77
2022/10/18 10:43:00;;;;;;;11.33;7.70;;;;;;;-141.97;36.49;47547.91;4928311;29;20205;-78
2022/10/18 10:45:33;;;;;;;13.93;7.43;;;;;;;-141.97;36.23;47519.06;4928382;29;20197;-78
2022/10/18 10:48:15;;;;;;;11.70;7.57;;;;;;;-141.97;36.16;47499.84;4928870;29;20252;-77
2022/10/18 10:50:51;;;;;;;13.60;7.43;;;;;;;-141.97;36.02;47496.00;4986349;28;20292;-76
2022/10/18 10:53:31;;;;;;;12.10;7.27;;;;;;;-141.97;35.81;47505.63;4977671;28;20295;-77
2022/10/18 10:55:58;;;;;;;8.67;6.67;;;;;;;-141.97;35.23;47515.22;4969210;28;20184;-78
2022/10/18 10:58:32;;;;;;;11.87;7.67;;;;;;;-141.97;34.88;47503.69;4969917;28;20199;-78
2022/10/18 11:01:36;;;;;;;13.13;7.30;;;;;;;-141.97;35.54;47522.91;4960826;28;20239;-78
2022/10/18 11:04:24;;;;;;;11.43;7.40;;;;;;;-141.97;35.32;47522.91;4969648;28;20200;-77
2022/10/18 11:07:05;;;;;;;11.90;7.30;;;;;;;-141.97;34.57;47532.53;4969441;28;20271;-77
2022/10/18 11:09:38;;;;;;;12.53;7.40;;;;;;;-141.97;33.95;47511.38;4969258;28;20238;-76
2022/10/18 11:12:41;;;;;;;10.70;6.83;;;;;;;-141.97;33.41;47501.78;4969830;28;20341;-74
2022/10/18 11:15:10;;;;;;;9.03;6.80;;;;;;;-141.97;33.41;47503.69;4971513;28;20187;-78
2022/10/18 11:17:38;;;;;;;11.93;6.50;;;;;;;-141.97;33.38;47521.00;4969964;28;20715;-77
2022/10/18 11:20:28;;;;;;;15.20;6.50;;;;;;;-141.97;33.78;47476.78;4973389;28;20659;-77
2022/10/18 11:23:29;;;;;;;12.57;6.80;;;;;;;-141.97;33.85;47507.53;4973052;28;20652;-76
2022/10/18 11:26:10;;;;;;;10.40;6.33;;;;;;;-141.97;33.96;47532.53;4871670;29;20699;-77
2022/10/18 11:28:35;;;;;;;11.07;6.10;;;;;;;-141.97;33.93;47515.22;4895774;29;20331;-77